Teranga — FAC2996 — position and weather

sailwx.info

Track history (hours):
 
Tides and Currents Weather Stations Pressure Air Temp Water Temp Dewpoint Dewpoint Depression Visibility Wind Speed Wind Dir Waves Ship Positions

Teranga

Last reported at 2018-Jun-16 15:48 UTC. Time now 2018-Jun-20 05:43 UTC.
Position N 38°60' E 001°13'.

Length 13 m.

Type: Sailing vessel. MMSI: 227270830.

Date/timePositionNaut miles runAvg speedWind from/ knotsBaromVisibWave heightAir tempDewpointWater temp
2018-Jun-16 15:48N 38°60' E 001°13'4 0.9
2018-Jun-16 11:54N 38°56' E 001°14'9 0.5
2018-Jun-15 18:17N 38°54' E 001°26'0 0.0
2018-Jun-14 19:19N 38°54' E 001°26'0 0.0
2018-Jun-14 16:40N 38°54' E 001°26'0 0.0
2018-Jun-14 15:28N 38°54' E 001°26'0 0.0
2018-Jun-14 14:55N 38°54' E 001°26'0 0.0
2018-Jun-14 10:07N 38°54' E 001°26'0 0.0
2018-Jun-14 07:31N 38°54' E 001°26'0 0.0
2018-Jun-14 07:16N 38°54' E 001°26'0 0.0
2018-Jun-14 06:55N 38°54' E 001°26'0 0.0
2018-Jun-14 06:22N 38°54' E 001°26'0 0.0
2018-Jun-13 10:28N 38°54' E 001°26'  
2018-Jun-07 14:29N 38°05' W 000°28'4 6.5
2018-Jun-07 13:53N 38°02' W 000°32'4 7.4
2018-Jun-07 13:24N 37°60' W 000°35'3 7.1
2018-Jun-07 12:59N 37°57' W 000°37'3 6.5
2018-Jun-07 12:30N 37°54' W 000°39'3 6.0
2018-Jun-07 11:59N 37°52' W 000°40'3 5.6
2018-Jun-07 11:30N 37°49' W 000°42'3 5.5
2018-Jun-07 11:00N 37°46' W 000°42'2 4.1
2018-Jun-07 10:30N 37°44' W 000°43'2 2.2
2018-Jun-07 09:50N 37°45' W 000°44'1 3.8
2018-Jun-07 09:30N 37°44' W 000°46'3 5.4
2018-Jun-07 09:00N 37°41' W 000°47'1 0.3
2018-Jun-07 07:22N 37°41' W 000°46'0 0.0
2018-Jun-07 06:52N 37°41' W 000°46'0 0.0
2018-Jun-07 06:28N 37°41' W 000°46'0 0.0
2018-Jun-07 05:58N 37°41' W 000°46'0 0.0
2018-Jun-07 05:22N 37°41' W 000°46'0 0.0
2018-Jun-07 04:52N 37°41' W 000°46'0 0.0
2018-Jun-07 04:28N 37°41' W 000°46'0 0.0
2018-Jun-07 03:04N 37°41' W 000°46'0 0.0
2018-Jun-07 02:58N 37°41' W 000°46'0 0.0
2018-Jun-07 01:28N 37°41' W 000°46'0 0.0
2018-Jun-06 23:16N 37°41' W 000°46'0 0.0
2018-Jun-06 17:34N 37°41' W 000°46'0 1.3
2018-Jun-06 17:29N 37°41' W 000°46'1 2.4
2018-Jun-06 16:59N 37°42' W 000°46'2 5.0
2018-Jun-06 16:30N 37°45' W 000°45'1 2.7
2018-Jun-06 16:00N 37°44' W 000°44'  
Track history (hours):
 
Tides and Currents Weather Stations Pressure Air Temp Water Temp Dewpoint Dewpoint Depression Visibility Wind Speed Wind Dir Waves Ship Positions

Teranga

Last reported at 2018-Jun-16 15:48 UTC. Time now 2018-Jun-20 05:43 UTC.
Position N 38°60' E 001°13'.

Length 13 m.

Type: Sailing vessel. MMSI: 227270830.

Date/timePositionNaut miles runAvg speedWind from/ knotsBaromVisibWave heightAir tempDewpointWater temp
2018-Jun-16 15:48N 38°60' E 001°13'4 0.9
2018-Jun-16 11:54N 38°56' E 001°14'9 0.5
2018-Jun-15 18:17N 38°54' E 001°26'0 0.0
2018-Jun-14 19:19N 38°54' E 001°26'0 0.0
2018-Jun-14 16:40N 38°54' E 001°26'0 0.0
2018-Jun-14 15:28N 38°54' E 001°26'0 0.0
2018-Jun-14 14:55N 38°54' E 001°26'0 0.0
2018-Jun-14 10:07N 38°54' E 001°26'0 0.0
2018-Jun-14 07:31N 38°54' E 001°26'0 0.0
2018-Jun-14 07:16N 38°54' E 001°26'0 0.0
2018-Jun-14 06:55N 38°54' E 001°26'0 0.0
2018-Jun-14 06:22N 38°54' E 001°26'0 0.0
2018-Jun-13 10:28N 38°54' E 001°26'  
2018-Jun-07 14:29N 38°05' W 000°28'4 6.5
2018-Jun-07 13:53N 38°02' W 000°32'4 7.4
2018-Jun-07 13:24N 37°60' W 000°35'3 7.1
2018-Jun-07 12:59N 37°57' W 000°37'3 6.5
2018-Jun-07 12:30N 37°54' W 000°39'3 6.0
2018-Jun-07 11:59N 37°52' W 000°40'3 5.6
2018-Jun-07 11:30N 37°49' W 000°42'3 5.5
2018-Jun-07 11:00N 37°46' W 000°42'2 4.1
2018-Jun-07 10:30N 37°44' W 000°43'2 2.2
2018-Jun-07 09:50N 37°45' W 000°44'1 3.8
2018-Jun-07 09:30N 37°44' W 000°46'3 5.4
2018-Jun-07 09:00N 37°41' W 000°47'1 0.3
2018-Jun-07 07:22N 37°41' W 000°46'0 0.0
2018-Jun-07 06:52N 37°41' W 000°46'0 0.0
2018-Jun-07 06:28N 37°41' W 000°46'0 0.0
2018-Jun-07 05:58N 37°41' W 000°46'0 0.0
2018-Jun-07 05:22N 37°41' W 000°46'0 0.0
2018-Jun-07 04:52N 37°41' W 000°46'0 0.0
2018-Jun-07 04:28N 37°41' W 000°46'0 0.0
2018-Jun-07 03:04N 37°41' W 000°46'0 0.0
2018-Jun-07 02:58N 37°41' W 000°46'0 0.0
2018-Jun-07 01:28N 37°41' W 000°46'0 0.0
2018-Jun-06 23:16N 37°41' W 000°46'0 0.0
2018-Jun-06 17:34N 37°41' W 000°46'0 1.3
2018-Jun-06 17:29N 37°41' W 000°46'1 2.4
2018-Jun-06 16:59N 37°42' W 000°46'2 5.0
2018-Jun-06 16:30N 37°45' W 000°45'1 2.7
2018-Jun-06 16:00N 37°44' W 000°44'  

Dump ship's entire track history